createdAt,value
2023-03-20T00:00:22.054Z,52.55
2023-03-20T00:02:52.523Z,61.35
2023-03-20T00:05:21.347Z,56.90
2023-03-20T00:07:49.399Z,60.20
2023-03-20T00:10:20.441Z,52.05
2023-03-20T00:12:49.382Z,67.47
2023-03-20T00:15:23.744Z,67.40
2023-03-20T00:17:51.265Z,70.97
2023-03-20T00:20:18.874Z,72.32
2023-03-20T00:22:47.012Z,79.70
2023-03-20T00:25:16.087Z,83.00
2023-03-20T00:27:44.016Z,77.68
2023-03-20T00:30:19.843Z,75.95
2023-03-20T00:32:48.936Z,68.20
2023-03-20T00:35:18.827Z,76.82
2023-03-20T00:37:46.370Z,65.28
2023-03-20T00:40:14.646Z,64.90
2023-03-20T00:42:42.491Z,61.90
2023-03-20T00:45:13.393Z,76.65
2023-03-20T00:47:41.995Z,66.20
2023-03-20T00:50:16.335Z,69.78
2023-03-20T00:52:46.547Z,67.97
2023-03-20T00:55:14.163Z,58.97
2023-03-20T00:57:44.176Z,58.95
2023-03-20T01:00:21.062Z,55.38
2023-03-20T01:02:48.917Z,53.20
2023-03-20T01:05:17.914Z,50.63
2023-03-20T01:07:45.933Z,62.72
2023-03-20T01:10:13.761Z,69.13
2023-03-20T01:12:41.761Z,62.50
2023-03-20T01:15:18.108Z,64.30
2023-03-20T01:17:46.746Z,73.93
2023-03-20T01:20:21.350Z,75.75
2023-03-20T01:22:48.956Z,83.03
2023-03-20T01:25:17.152Z,87.00
2023-03-20T01:27:45.914Z,85.75
2023-03-20T01:30:17.476Z,86.03
2023-03-20T01:32:46.480Z,88.38
2023-03-20T01:35:15.000Z,84.75
2023-03-20T01:37:44.913Z,97.93
2023-03-20T01:40:16.988Z,80.07
2023-03-20T01:42:44.464Z,85.13
2023-03-20T01:45:16.941Z,78.85
2023-03-20T01:47:44.497Z,83.45
2023-03-20T01:50:23.349Z,89.45
2023-03-20T01:52:53.496Z,78.40
2023-03-20T01:55:22.138Z,99.40
2023-03-20T01:57:50.046Z,96.28
2023-03-20T02:00:20.060Z,99.65
2023-03-20T02:02:48.668Z,102.28
2023-03-20T02:05:18.655Z,88.30
2023-03-20T02:07:47.854Z,79.55
2023-03-20T02:10:17.501Z,105.15
2023-03-20T02:12:45.284Z,81.93
2023-03-20T02:15:13.556Z,87.97
2023-03-20T02:17:42.642Z,98.18
2023-03-20T02:20:15.711Z,72.97
2023-03-20T02:23:01.293Z,86.18
2023-03-20T02:25:46.749Z,74.82
2023-03-20T02:28:32.159Z,68.28
2023-03-20T02:31:15.766Z,71.10
2023-03-20T02:34:03.458Z,72.53
2023-03-20T02:36:37.347Z,70.40
2023-03-20T02:39:21.546Z,64.40
2023-03-20T02:41:52.849Z,91.43
2023-03-20T02:44:23.261Z,86.22
2023-03-20T02:46:55.223Z,82.10
2023-03-20T02:49:31.502Z,97.93
2023-03-20T02:52:02.396Z,87.13
2023-03-20T02:54:33.592Z,87.13
2023-03-20T02:57:05.936Z,95.78
2023-03-20T02:59:36.843Z,88.15
2023-03-20T03:02:06.808Z,79.10
2023-03-20T03:04:36.700Z,90.38
2023-03-20T03:07:06.650Z,104.55
2023-03-20T03:09:36.730Z,97.45
2023-03-20T03:12:06.124Z,91.70
2023-03-20T03:14:36.603Z,91.28
2023-03-20T03:17:06.161Z,93.80
2023-03-20T03:19:34.870Z,89.95
2023-03-20T03:22:02.494Z,91.50
2023-03-20T03:24:42.172Z,89.40
2023-03-20T03:27:17.481Z,106.03
2023-03-20T03:29:48.694Z,99.30
2023-03-20T03:32:24.187Z,95.47
2023-03-20T03:34:51.743Z,110.03
2023-03-20T03:37:22.993Z,179.52
2023-03-20T03:39:52.366Z,156.43
2023-03-20T03:42:24.226Z,144.68
2023-03-20T03:44:54.579Z,134.68
2023-03-20T03:47:24.607Z,130.20
2023-03-20T03:49:53.520Z,108.43
2023-03-20T03:52:22.608Z,92.50
2023-03-20T03:54:53.334Z,97.63
2023-03-20T03:57:24.862Z,104.55
2023-03-20T03:59:53.988Z,95.50
2023-03-20T04:02:22.701Z,99.10
2023-03-20T04:04:52.105Z,128.90
2023-03-20T04:07:19.806Z,121.88
2023-03-20T04:09:47.344Z,131.23
2023-03-20T04:12:27.946Z,134.57
2023-03-20T04:14:57.030Z,131.52
2023-03-20T04:17:24.487Z,113.20
2023-03-20T04:19:52.064Z,121.68
2023-03-20T04:22:19.615Z,116.03
2023-03-20T04:24:47.203Z,108.05
2023-03-20T04:27:14.825Z,118.93
2023-03-20T04:29:42.378Z,121.28
2023-03-20T04:32:11.217Z,115.93
2023-03-20T04:34:38.998Z,120.43
2023-03-20T04:37:08.411Z,108.22
2023-03-20T04:39:37.653Z,94.95
2023-03-20T04:42:09.144Z,144.02
2023-03-20T04:44:36.663Z,98.60
2023-03-20T04:47:06.675Z,87.43
2023-03-20T04:49:35.948Z,102.35
2023-03-20T04:52:03.398Z,84.70
2023-03-20T04:54:31.043Z,84.70
2023-03-20T04:56:58.560Z,82.97
2023-03-20T04:59:26.189Z,86.53
2023-03-20T05:01:53.840Z,98.00
2023-03-20T05:04:23.448Z,89.90
2023-03-20T05:06:55.324Z,87.00
2023-03-20T05:09:22.907Z,85.97
2023-03-20T05:14:42.374Z,77.68
2023-03-20T05:17:09.910Z,76.68
2023-03-20T05:19:38.777Z,88.13
2023-03-20T05:22:07.717Z,72.28
2023-03-20T05:24:35.272Z,72.28
2023-03-20T05:27:02.781Z,84.63
2023-03-20T05:29:30.371Z,72.40
2023-03-20T05:31:59.048Z,67.45
2023-03-20T05:34:27.792Z,64.65
2023-03-20T05:36:55.689Z,64.68
2023-03-20T05:39:24.704Z,57.05
2023-03-20T05:41:52.227Z,52.72
2023-03-20T05:44:19.815Z,50.95
2023-03-20T05:46:47.301Z,52.67
2023-03-20T05:49:14.918Z,43.67
2023-03-20T05:51:42.459Z,49.15
2023-03-20T05:54:09.972Z,37.20
2023-03-20T05:56:39.015Z,45.05
2023-03-20T05:59:06.712Z,44.22
2023-03-20T06:01:34.195Z,38.65
2023-03-20T06:04:01.743Z,36.17
2023-03-20T06:06:29.378Z,37.83
2023-03-20T06:08:56.883Z,39.90
2023-03-20T06:11:24.366Z,35.67
2023-03-20T06:13:54.651Z,37.15
2023-03-20T06:16:22.292Z,39.05
2023-03-20T06:18:50.306Z,36.78
2023-03-20T06:21:17.906Z,42.25
2023-03-20T06:23:45.623Z,37.88
2023-03-20T06:26:13.225Z,36.25
2023-03-20T06:28:41.225Z,37.42
2023-03-20T06:31:10.162Z,36.03
2023-03-20T06:33:38.100Z,37.17
2023-03-20T06:36:08.035Z,38.97
2023-03-20T06:38:35.678Z,39.30
2023-03-20T06:41:03.152Z,38.75
2023-03-20T06:43:30.837Z,41.40
2023-03-20T06:45:58.383Z,40.22
2023-03-20T06:48:27.207Z,39.85
2023-03-20T06:50:54.871Z,34.90
2023-03-20T06:53:22.898Z,35.40
2023-03-20T06:55:51.725Z,37.10
2023-03-20T06:58:27.303Z,34.53
2023-03-20T07:00:55.336Z,37.20
2023-03-20T07:03:22.861Z,36.47
2023-03-20T07:05:51.921Z,39.58
2023-03-20T07:08:19.431Z,40.33
2023-03-20T07:10:47.046Z,37.10
2023-03-20T07:13:14.710Z,39.45
2023-03-20T07:15:57.494Z,36.90
2023-03-20T07:18:34.406Z,37.65
2023-03-20T07:21:05.168Z,48.15
2023-03-20T07:23:34.520Z,41.20
2023-03-20T07:26:02.392Z,46.05
2023-03-20T07:28:29.884Z,40.05
2023-03-20T07:30:57.385Z,46.90
2023-03-20T07:33:25.007Z,44.05
2023-03-20T07:35:55.715Z,43.38
2023-03-20T07:38:24.723Z,48.58
2023-03-20T07:40:54.541Z,53.60
2023-03-20T07:43:22.110Z,46.78
2023-03-20T07:45:49.601Z,47.38
2023-03-20T07:48:20.458Z,43.88
2023-03-20T07:50:47.971Z,41.85
2023-03-20T07:53:15.498Z,39.28
2023-03-20T07:55:44.811Z,41.42
2023-03-20T07:58:12.314Z,42.33
2023-03-20T08:00:39.798Z,39.08
2023-03-20T08:03:07.430Z,38.88
2023-03-20T08:05:35.437Z,37.95
2023-03-20T08:08:03.550Z,42.63
2023-03-20T08:10:32.003Z,39.92
2023-03-20T08:13:01.600Z,37.50
2023-03-20T08:15:29.203Z,39.45
2023-03-20T08:17:58.769Z,34.55
2023-03-20T08:20:26.299Z,37.25
2023-03-20T08:22:53.841Z,29.85
2023-03-20T08:25:21.740Z,30.98
2023-03-20T08:27:49.402Z,33.33
2023-03-20T08:30:18.357Z,38.85
2023-03-20T08:32:46.609Z,30.73
2023-03-20T08:35:29.743Z,34.75
2023-03-20T08:37:59.964Z,26.17
2023-03-20T08:40:27.541Z,23.63
2023-03-20T08:42:55.124Z,26.02
2023-03-20T08:45:26.551Z,22.98
2023-03-20T08:47:54.982Z,26.58
2023-03-20T08:50:22.555Z,22.98
2023-03-20T08:52:50.164Z,17.23
2023-03-20T08:55:18.121Z,22.33
2023-03-20T08:58:15.972Z,16.50
2023-03-20T09:00:44.916Z,17.77
2023-03-20T09:03:18.565Z,18.80
2023-03-20T09:05:46.604Z,19.35
2023-03-20T09:08:14.394Z,21.80
2023-03-20T09:10:42.054Z,19.67
2023-03-20T09:13:25.745Z,24.08
2023-03-20T09:15:56.583Z,20.23
2023-03-20T09:18:24.832Z,12.52
2023-03-20T09:20:52.362Z,14.10
2023-03-20T09:23:20.227Z,11.40
2023-03-20T09:25:49.583Z,11.75
2023-03-20T09:28:17.108Z,10.13
2023-03-20T09:36:31.616Z,8.30
2023-03-20T09:38:59.077Z,11.10
2023-03-20T09:41:28.417Z,14.45
2023-03-20T09:44:03.004Z,15.63
2023-03-20T09:46:49.679Z,13.40
2023-03-20T09:49:26.506Z,18.15
2023-03-20T09:51:56.287Z,14.77
2023-03-20T09:54:25.961Z,18.50
2023-03-20T09:56:55.576Z,14.80
2023-03-20T09:59:24.781Z,20.13
2023-03-20T10:01:54.086Z,17.80
2023-03-20T10:04:25.044Z,16.08
2023-03-20T10:06:52.858Z,20.00
2023-03-20T10:09:22.463Z,19.83
2023-03-20T10:12:06.782Z,18.63
2023-03-20T10:20:05.046Z,12.98
2023-03-20T10:22:35.150Z,10.68
2023-03-20T10:25:08.820Z,12.98
2023-03-20T10:27:40.576Z,12.50
2023-03-20T10:30:20.248Z,11.95
2023-03-20T10:32:50.444Z,11.15
2023-03-20T10:38:20.673Z,11.40
2023-03-20T10:40:49.116Z,15.80
2023-03-20T10:43:19.403Z,14.80
2023-03-20T10:45:48.339Z,13.00
2023-03-20T10:48:18.106Z,14.70
2023-03-20T10:53:44.377Z,15.18
2023-03-20T10:56:16.856Z,15.88
2023-03-20T11:01:40.876Z,17.60
2023-03-20T11:04:08.490Z,20.23
2023-03-20T11:06:42.365Z,13.60
2023-03-20T11:09:12.055Z,15.95
2023-03-20T11:11:44.336Z,18.77
2023-03-20T11:14:18.692Z,16.35
2023-03-20T11:16:50.010Z,17.55
2023-03-20T11:19:17.652Z,16.50
2023-03-20T11:21:57.776Z,17.48
2023-03-20T11:24:27.920Z,18.13
2023-03-20T11:26:56.644Z,15.57
2023-03-20T11:29:35.041Z,16.80
2023-03-20T11:34:33.455Z,17.38
2023-03-20T11:39:42.352Z,19.23
2023-03-20T11:42:23.513Z,21.08
2023-03-20T11:44:58.372Z,20.20
2023-03-20T11:47:27.409Z,16.55
2023-03-20T11:49:56.060Z,16.67
2023-03-20T11:52:25.155Z,19.73
2023-03-20T11:54:55.687Z,24.23
2023-03-20T11:57:32.263Z,17.92
2023-03-20T12:00:02.307Z,20.13
2023-03-20T12:02:29.883Z,19.95
2023-03-20T12:05:00.491Z,17.42
2023-03-20T12:07:31.055Z,21.20
2023-03-20T12:10:01.331Z,18.50
2023-03-20T12:12:35.938Z,18.65
2023-03-20T12:15:09.512Z,15.27
2023-03-20T12:17:41.354Z,13.25
2023-03-20T12:20:14.035Z,19.17
2023-03-20T12:22:46.555Z,15.38
2023-03-20T12:25:20.170Z,16.58
2023-03-20T12:27:49.829Z,15.27
2023-03-20T12:30:21.674Z,14.57
2023-03-20T12:32:53.386Z,18.75
2023-03-20T12:35:24.394Z,17.90
2023-03-20T12:37:52.262Z,17.17
2023-03-20T12:40:27.784Z,12.32
2023-03-20T12:42:59.956Z,15.05
2023-03-20T12:45:31.286Z,21.48
2023-03-20T12:48:03.509Z,17.88
2023-03-20T12:53:31.172Z,17.37
2023-03-20T12:56:02.714Z,17.67
2023-03-20T12:58:36.819Z,16.52
2023-03-20T13:01:05.310Z,15.05
2023-03-20T13:03:41.305Z,21.92
2023-03-20T13:06:11.671Z,12.93
2023-03-20T13:08:45.946Z,15.30
2023-03-20T13:11:19.663Z,15.68
2023-03-20T13:13:51.964Z,17.98
2023-03-20T13:16:23.675Z,18.33
2023-03-20T13:18:55.557Z,14.43
2023-03-20T13:21:31.236Z,16.25
2023-03-20T13:24:04.946Z,18.42
2023-03-20T13:26:39.558Z,21.40
2023-03-20T13:29:10.021Z,16.90
2023-03-20T13:31:48.258Z,22.65
2023-03-20T13:34:25.936Z,27.85
2023-03-20T13:37:02.544Z,17.45
2023-03-20T13:39:36.348Z,29.05
2023-03-20T13:42:07.689Z,26.25
2023-03-20T13:44:36.001Z,23.58
2023-03-20T13:47:05.904Z,27.70
2023-03-20T13:49:36.494Z,29.60
2023-03-20T13:52:09.000Z,28.00
2023-03-20T13:54:43.668Z,30.17
2023-03-20T13:57:16.838Z,28.48
2023-03-20T13:59:54.432Z,29.70
2023-03-20T14:02:30.066Z,27.90
2023-03-20T14:05:00.770Z,29.60
2023-03-20T14:07:54.178Z,29.65
2023-03-20T14:10:37.275Z,30.85
2023-03-20T14:13:13.766Z,27.77
2023-03-20T14:15:45.981Z,28.55
2023-03-20T14:21:12.771Z,32.13
2023-03-20T14:23:41.687Z,28.05
2023-03-20T14:26:09.919Z,27.83
2023-03-20T14:28:53.573Z,27.35
2023-03-20T14:31:26.024Z,27.83
2023-03-20T14:34:01.519Z,28.45
2023-03-20T14:36:31.260Z,31.42
2023-03-20T14:39:13.449Z,29.98
2023-03-20T14:41:56.267Z,33.25
2023-03-20T14:44:30.768Z,34.25
2023-03-20T14:47:01.801Z,33.05
2023-03-20T14:49:38.272Z,27.88
2023-03-20T14:52:15.225Z,31.00
2023-03-20T14:54:42.949Z,27.60
2023-03-20T14:57:14.147Z,28.77
2023-03-20T14:59:43.172Z,30.45
2023-03-20T15:02:24.112Z,35.70
2023-03-20T15:04:51.813Z,32.33
2023-03-20T15:07:24.354Z,30.75
2023-03-20T15:09:56.066Z,45.50
2023-03-20T15:12:25.922Z,29.95
2023-03-20T15:14:56.892Z,29.75
2023-03-20T15:17:25.336Z,31.05
2023-03-20T15:20:00.081Z,34.05
2023-03-20T15:22:27.694Z,35.25
2023-03-20T15:24:56.763Z,32.58
2023-03-20T15:27:29.624Z,35.03
2023-03-20T15:29:58.849Z,28.48
2023-03-20T15:32:26.354Z,34.00
2023-03-20T15:34:54.369Z,37.72
2023-03-20T15:37:24.005Z,32.05
2023-03-20T15:39:53.761Z,43.40
2023-03-20T15:42:22.505Z,42.05
2023-03-20T15:44:52.005Z,37.58
2023-03-20T15:47:22.183Z,38.75
2023-03-20T15:49:51.763Z,35.85
2023-03-20T15:52:25.839Z,40.88
2023-03-20T15:54:53.457Z,36.15
2023-03-20T15:57:25.457Z,34.83
2023-03-20T15:59:53.114Z,44.90
2023-03-20T16:02:22.315Z,40.25
2023-03-20T16:04:51.957Z,45.17
2023-03-20T16:07:23.588Z,54.17
2023-03-20T16:09:51.567Z,48.58
2023-03-20T16:12:19.444Z,47.75
2023-03-20T16:14:48.169Z,38.28
2023-03-20T16:17:16.196Z,38.22
2023-03-20T16:19:45.124Z,37.33
2023-03-20T16:22:18.394Z,45.25
2023-03-20T16:24:47.627Z,46.65
2023-03-20T16:27:17.455Z,38.47
2023-03-20T16:29:45.446Z,39.63
2023-03-20T16:32:19.971Z,38.88
2023-03-20T16:34:50.982Z,47.72
2023-03-20T16:37:28.013Z,43.83
2023-03-20T16:40:06.202Z,35.45
2023-03-20T16:42:34.440Z,37.95
2023-03-20T16:45:05.649Z,45.13
2023-03-20T16:47:36.155Z,38.90
2023-03-20T16:50:10.699Z,49.20
2023-03-20T16:52:39.511Z,46.45
2023-03-20T16:55:12.429Z,46.78
2023-03-20T16:57:40.240Z,53.28
2023-03-20T17:00:09.543Z,43.35
2023-03-20T17:02:38.213Z,47.17
2023-03-20T17:05:08.721Z,51.92
2023-03-20T17:07:36.990Z,48.58
2023-03-20T17:10:13.532Z,49.67
2023-03-20T17:12:42.022Z,41.40
2023-03-20T17:15:11.220Z,44.83
2023-03-20T17:17:55.541Z,39.67
2023-03-20T17:20:25.782Z,48.90
2023-03-20T17:22:53.765Z,51.47
2023-03-20T17:25:22.059Z,49.42
2023-03-20T17:27:49.781Z,46.55
2023-03-20T17:30:18.764Z,50.85
2023-03-20T17:32:46.759Z,52.30
2023-03-20T17:35:14.658Z,49.20
2023-03-20T17:37:43.519Z,55.20
2023-03-20T17:40:15.562Z,40.95
2023-03-20T17:42:43.362Z,59.78
2023-03-20T17:45:14.780Z,44.53
2023-03-20T17:47:47.573Z,52.35
2023-03-20T17:50:18.521Z,40.75
2023-03-20T17:52:47.414Z,55.63
2023-03-20T17:55:15.800Z,53.90
2023-03-20T17:57:43.701Z,52.65
2023-03-20T18:00:23.169Z,48.65
2023-03-20T18:02:56.361Z,56.70
2023-03-20T18:05:24.436Z,50.78
2023-03-20T18:07:56.343Z,45.60
2023-03-20T18:10:26.414Z,51.33
2023-03-20T18:12:53.929Z,50.63
2023-03-20T18:15:21.499Z,55.85
2023-03-20T18:17:51.510Z,50.92
2023-03-20T18:20:24.350Z,50.80
2023-03-20T18:22:54.309Z,47.13
2023-03-20T18:25:22.852Z,48.80
2023-03-20T18:27:50.400Z,51.65
2023-03-20T18:30:23.180Z,50.33
2023-03-20T18:32:51.089Z,53.17
2023-03-20T18:35:23.485Z,47.10
2023-03-20T18:37:52.520Z,50.53
2023-03-20T18:40:28.123Z,45.67
2023-03-20T18:43:00.474Z,60.25
2023-03-20T18:45:28.798Z,52.88
2023-03-20T18:47:56.496Z,50.97
2023-03-20T18:50:28.590Z,51.78
2023-03-20T18:52:57.130Z,56.85
2023-03-20T18:55:30.122Z,56.25
2023-03-20T18:57:57.982Z,62.28
2023-03-20T19:00:28.656Z,61.42
2023-03-20T19:03:07.359Z,59.55
2023-03-20T19:05:34.968Z,60.25
2023-03-20T19:08:03.486Z,58.28
2023-03-20T19:10:36.515Z,58.22
2023-03-20T19:13:05.382Z,65.20
2023-03-20T19:15:35.751Z,61.92
2023-03-20T19:18:09.833Z,57.05
2023-03-20T19:20:38.301Z,58.63
2023-03-20T19:23:06.997Z,54.38
2023-03-20T19:25:36.254Z,58.25
2023-03-20T19:28:04.066Z,66.80
2023-03-20T19:30:39.277Z,67.28
2023-03-20T19:33:07.698Z,63.88
2023-03-20T19:36:11.211Z,57.42
2023-03-20T19:38:30.526Z,63.20
2023-03-20T19:41:00.289Z,64.60
2023-03-20T19:43:30.640Z,67.05
2023-03-20T19:45:59.401Z,62.58
2023-03-20T19:48:27.671Z,63.15
2023-03-20T19:50:56.864Z,61.65
2023-03-20T19:53:27.990Z,61.88
2023-03-20T19:56:02.362Z,59.70
2023-03-20T19:58:32.577Z,60.97
2023-03-20T20:01:00.455Z,65.45
2023-03-20T20:03:28.482Z,73.38
2023-03-20T20:05:56.317Z,65.38
2023-03-20T20:08:42.530Z,65.13
2023-03-20T20:11:12.983Z,66.55
2023-03-20T20:14:03.756Z,78.72
2023-03-20T20:16:30.053Z,80.28
2023-03-20T20:18:57.653Z,65.82
2023-03-20T20:24:13.302Z,86.43
2023-03-20T20:26:52.944Z,83.80
2023-03-20T20:29:24.569Z,88.53
2023-03-20T20:31:52.367Z,70.38
2023-03-20T20:39:56.167Z,94.43
2023-03-20T20:42:23.842Z,98.32
2023-03-20T20:44:52.762Z,95.88
2023-03-20T20:47:20.340Z,108.63
2023-03-20T20:49:52.215Z,109.55
2023-03-20T20:52:19.884Z,98.18
2023-03-20T20:54:48.298Z,105.93
2023-03-20T20:57:16.088Z,98.38
2023-03-20T20:59:43.614Z,94.05
2023-03-20T21:02:17.894Z,92.25
2023-03-20T21:07:26.305Z,99.20
2023-03-20T21:09:54.041Z,97.10
2023-03-20T21:12:34.829Z,95.63
2023-03-20T21:15:06.690Z,94.03
2023-03-20T21:17:42.414Z,112.55
2023-03-20T21:20:15.391Z,102.50
2023-03-20T21:22:46.059Z,102.40
2023-03-20T21:25:18.706Z,97.70
2023-03-20T21:27:47.227Z,102.90
2023-03-20T21:30:17.510Z,107.10
2023-03-20T21:32:49.311Z,98.35
2023-03-20T21:35:17.382Z,99.28
2023-03-20T21:40:32.592Z,95.15
2023-03-20T21:43:00.477Z,96.38
2023-03-20T21:48:56.490Z,87.05
2023-03-20T21:54:56.454Z,89.72
2023-03-20T21:57:20.510Z,90.38
2023-03-20T22:02:23.601Z,88.18
2023-03-20T22:17:08.663Z,82.15
2023-03-20T22:19:55.835Z,87.00
2023-03-20T22:22:34.443Z,81.75
2023-03-20T22:25:18.486Z,95.53
2023-03-20T22:28:00.899Z,80.65
2023-03-20T22:31:07.836Z,90.50
2023-03-20T22:39:24.736Z,80.53
2023-03-20T22:42:18.479Z,77.55
2023-03-20T22:47:03.540Z,75.80
2023-03-20T22:49:33.497Z,72.90
2023-03-20T22:52:24.492Z,76.90
2023-03-20T22:54:50.246Z,86.38
2023-03-20T22:57:17.793Z,84.80
2023-03-20T22:59:45.373Z,100.35
2023-03-20T23:02:13.191Z,84.30
2023-03-20T23:04:40.737Z,89.68
2023-03-20T23:07:08.318Z,95.55
2023-03-20T23:09:37.941Z,96.90
2023-03-20T23:12:07.073Z,84.38
2023-03-20T23:14:45.312Z,96.13
2023-03-20T23:17:13.740Z,96.35
2023-03-20T23:19:47.872Z,89.20
2023-03-20T23:22:19.532Z,93.95
2023-03-20T23:24:47.017Z,106.03
2023-03-20T23:27:18.442Z,84.78
2023-03-20T23:29:46.417Z,88.78
2023-03-20T23:32:13.946Z,94.00
2023-03-20T23:34:41.569Z,97.32
2023-03-20T23:37:09.145Z,85.82
2023-03-20T23:39:36.649Z,88.32
2023-03-20T23:42:17.410Z,85.63
2023-03-20T23:44:57.545Z,85.53
2023-03-20T23:47:35.354Z,94.28
2023-03-20T23:50:20.672Z,106.85
2023-03-20T23:53:03.665Z,110.80
2023-03-20T23:55:37.720Z,115.45
2023-03-20T23:58:05.291Z,116.15
